Time;durP1;ratioP1;P1;durP2;ratioP2;P2;SDS_P1;SDS_P2;PMS_P1;PMS_P2;Temp;Humidity;BMP_temperature;BMP_pressure;BME280_temperature;BME280_humidity;BME280_pressure;Samples;Min_cycle;Max_cycle;Signal;HPM_P1;HPM_P2
2021/07/06 00:01:29;;;;;;;6.03;4.50;;;;;;;;;;5024573;28;20398;-43
2021/07/06 00:03:55;;;;;;;10.68;7.15;;;;;;;;;;5024260;28;20021;-43
2021/07/06 00:06:21;;;;;;;6.68;5.63;;;;;;;;;;5024804;28;20033;-45
2021/07/06 00:08:47;;;;;;;12.00;7.32;;;;;;;;;;5024469;28;20637;-44
2021/07/06 00:11:14;;;;;;;6.70;5.20;;;;;;;;;;5024936;28;20037;-44
2021/07/06 00:13:40;;;;;;;8.20;5.38;;;;;;;;;;5024335;28;20022;-43
2021/07/06 00:16:06;;;;;;;11.05;5.68;;;;;;;;;;5023883;28;20100;-43
2021/07/06 00:18:32;;;;;;;7.60;5.90;;;;;;;;;;5024079;28;20469;-43
2021/07/06 00:21:00;;;;;;;11.75;7.07;;;;;;;;;;5025125;28;20029;-43
2021/07/06 00:23:26;;;;;;;6.63;5.05;;;;;;;;;;5024556;28;20044;-43
2021/07/06 00:25:52;;;;;;;8.82;6.03;;;;;;;;;;5024432;28;20021;-43
2021/07/06 00:28:19;;;;;;;8.50;6.47;;;;;;;;;;5023987;28;20031;-43
2021/07/06 00:30:45;;;;;;;13.07;6.97;;;;;;;;;;5024069;28;20029;-43
2021/07/06 00:33:11;;;;;;;6.40;5.47;;;;;;;;;;5025075;28;20087;-43
2021/07/06 00:35:37;;;;;;;7.95;5.22;;;;;;;;;;5024806;28;20766;-43
2021/07/06 00:38:03;;;;;;;7.53;5.00;;;;;;;;;;5024018;28;20033;-43
2021/07/06 00:40:29;;;;;;;11.05;5.25;;;;;;;;;;5023974;28;20501;-43
2021/07/06 00:42:59;;;;;;;9.00;5.85;;;;;;;;;;5024316;28;20025;-42
2021/07/06 00:45:26;;;;;;;7.20;5.45;;;;;;;;;;5024447;28;20036;-44
2021/07/06 00:47:52;;;;;;;12.23;5.68;;;;;;;;;;5023478;28;20021;-44
2021/07/06 00:50:23;;;;;;;21.65;5.65;;;;;;;;;;5023462;28;20397;-43
2021/07/06 00:52:49;;;;;;;8.50;5.15;;;;;;;;;;5023872;28;20052;-43
2021/07/06 00:55:15;;;;;;;7.75;5.93;;;;;;;;;;5023455;28;20033;-43
2021/07/06 00:57:42;;;;;;;8.07;5.35;;;;;;;;;;5023855;28;20029;-43
2021/07/06 01:00:09;;;;;;;6.57;5.53;;;;;;;;;;5024430;28;20025;-44
2021/07/06 01:02:35;;;;;;;7.60;5.35;;;;;;;;;;5023488;28;20021;-44
2021/07/06 01:05:02;;;;;;;8.10;5.32;;;;;;;;;;5023650;28;20524;-43
2021/07/06 01:07:28;;;;;;;9.95;5.35;;;;;;;;;;5023387;28;20203;-43
2021/07/06 01:09:54;;;;;;;12.05;5.82;;;;;;;;;;5023270;28;20017;-43
2021/07/06 01:12:21;;;;;;;6.55;5.20;;;;;;;;;;5023410;28;20030;-43
2021/07/06 01:14:47;;;;;;;6.63;5.22;;;;;;;;;;5022890;28;20418;-42
2021/07/06 01:17:13;;;;;;;8.02;5.22;;;;;;;;;;5022947;28;20144;-42
2021/07/06 01:19:41;;;;;;;8.57;5.70;;;;;;;;;;5023175;28;20036;-42
2021/07/06 01:22:08;;;;;;;6.45;5.20;;;;;;;;;;5024148;28;20021;-42
2021/07/06 01:24:37;;;;;;;8.90;5.30;;;;;;;;;;5022873;28;20031;-43
2021/07/06 01:27:04;;;;;;;7.72;5.72;;;;;;;;;;5022806;28;20061;-45
2021/07/06 01:29:30;;;;;;;7.45;4.50;;;;;;;;;;5023775;28;20025;-42
2021/07/06 01:31:56;;;;;;;11.02;5.35;;;;;;;;;;5024517;28;20032;-43
2021/07/06 01:34:22;;;;;;;10.18;4.70;;;;;;;;;;5024703;28;20528;-42
2021/07/06 01:36:50;;;;;;;6.50;5.10;;;;;;;;;;5023206;28;20052;-42
2021/07/06 01:39:20;;;;;;;7.30;6.00;;;;;;;;;;5023841;28;20023;-42
2021/07/06 01:41:46;;;;;;;11.68;5.40;;;;;;;;;;5023886;28;20208;-42
2021/07/06 01:44:22;;;;;;;10.05;6.28;;;;;;;;;;5022730;28;20025;-42
2021/07/06 01:46:51;;;;;;;8.50;6.13;;;;;;;;;;5024135;28;20029;-42
2021/07/06 01:49:17;;;;;;;9.50;5.53;;;;;;;;;;5023493;28;20055;-42
2021/07/06 01:51:44;;;;;;;7.75;6.15;;;;;;;;;;5022476;28;20036;-43
2021/07/06 01:54:11;;;;;;;9.10;6.00;;;;;;;;;;5022499;28;20025;-43
2021/07/06 01:56:39;;;;;;;7.85;5.85;;;;;;;;;;5022414;28;20033;-42
2021/07/06 01:59:05;;;;;;;8.63;6.78;;;;;;;;;;5021961;28;20053;-43
2021/07/06 02:01:31;;;;;;;7.95;5.78;;;;;;;;;;5022282;28;20419;-43
2021/07/06 02:03:57;;;;;;;8.75;6.28;;;;;;;;;;5023293;28;20076;-43
2021/07/06 02:06:23;;;;;;;6.50;5.80;;;;;;;;;;5022427;28;20032;-43
2021/07/06 02:08:49;;;;;;;10.40;6.30;;;;;;;;;;5023090;28;20026;-43
2021/07/06 02:11:15;;;;;;;12.18;6.25;;;;;;;;;;5023329;28;20731;-43
2021/07/06 02:13:42;;;;;;;8.00;6.07;;;;;;;;;;5022112;28;20116;-43
2021/07/06 02:16:10;;;;;;;7.65;5.80;;;;;;;;;;5021893;28;20501;-43
2021/07/06 02:18:36;;;;;;;10.55;6.30;;;;;;;;;;5022016;28;20775;-43
2021/07/06 02:21:02;;;;;;;7.78;6.15;;;;;;;;;;5022127;28;20036;-43
2021/07/06 02:23:29;;;;;;;6.80;5.90;;;;;;;;;;5021807;28;20029;-43
2021/07/06 02:25:56;;;;;;;7.32;6.03;;;;;;;;;;5033033;28;20036;-43
2021/07/06 02:28:22;;;;;;;6.57;5.90;;;;;;;;;;5021900;28;20109;-43
2021/07/06 02:30:49;;;;;;;11.38;7.70;;;;;;;;;;5021060;28;20028;-44
2021/07/06 02:33:15;;;;;;;8.27;6.30;;;;;;;;;;5021791;28;20198;-43
2021/07/06 02:35:41;;;;;;;8.10;6.07;;;;;;;;;;5021575;28;20033;-44
2021/07/06 02:38:08;;;;;;;9.98;6.30;;;;;;;;;;5021849;28;20048;-44
2021/07/06 02:40:34;;;;;;;8.85;6.65;;;;;;;;;;5021764;28;20025;-43
2021/07/06 02:43:01;;;;;;;7.18;5.90;;;;;;;;;;5021722;28;20290;-44
2021/07/06 02:45:29;;;;;;;7.65;6.35;;;;;;;;;;5021448;28;20140;-44
2021/07/06 02:47:55;;;;;;;7.75;6.20;;;;;;;;;;5022629;28;20021;-44
2021/07/06 02:50:22;;;;;;;8.65;6.78;;;;;;;;;;5021516;28;20055;-43
2021/07/06 02:52:48;;;;;;;11.35;6.88;;;;;;;;;;5021473;28;20485;-44
2021/07/06 02:55:14;;;;;;;11.48;6.30;;;;;;;;;;5021096;28;20802;-43
2021/07/06 02:57:41;;;;;;;8.25;6.63;;;;;;;;;;5021375;28;20029;-44
2021/07/06 03:00:07;;;;;;;11.18;5.68;;;;;;;;;;5021544;28;20155;-44
2021/07/06 03:02:33;;;;;;;11.80;6.75;;;;;;;;;;5021364;28;20028;-44
2021/07/06 03:04:59;;;;;;;11.63;6.57;;;;;;;;;;5023834;28;20343;-44
2021/07/06 03:07:25;;;;;;;8.23;6.60;;;;;;;;;;5022310;28;20492;-43
2021/07/06 03:09:53;;;;;;;8.32;6.55;;;;;;;;;;5020920;28;20113;-43
2021/07/06 03:12:19;;;;;;;8.95;6.72;;;;;;;;;;5033345;28;20040;-43
2021/07/06 03:14:45;;;;;;;8.60;6.25;;;;;;;;;;5020909;28;20099;-43
2021/07/06 03:17:12;;;;;;;8.57;7.00;;;;;;;;;;5021111;28;20040;-43
2021/07/06 03:19:38;;;;;;;10.18;6.85;;;;;;;;;;5021321;28;20018;-43
2021/07/06 03:22:04;;;;;;;9.45;6.82;;;;;;;;;;5021409;28;20040;-43
2021/07/06 03:24:30;;;;;;;11.18;6.60;;;;;;;;;;5020889;28;20040;-43
2021/07/06 03:26:56;;;;;;;7.65;6.07;;;;;;;;;;5020780;28;20131;-42
2021/07/06 03:29:22;;;;;;;7.70;6.45;;;;;;;;;;5021054;28;20096;-42
2021/07/06 03:31:50;;;;;;;11.63;6.18;;;;;;;;;;5025032;28;20037;-43
2021/07/06 03:34:16;;;;;;;8.35;5.55;;;;;;;;;;5020889;28;20021;-43
2021/07/06 03:36:42;;;;;;;10.90;5.88;;;;;;;;;;5021962;28;20048;-43
2021/07/06 03:39:09;;;;;;;11.30;6.47;;;;;;;;;;5021105;28;20132;-43
2021/07/06 03:41:35;;;;;;;11.50;5.95;;;;;;;;;;5031471;28;20092;-44
2021/07/06 03:44:01;;;;;;;7.68;5.40;;;;;;;;;;5047714;28;20025;-45
2021/07/06 03:46:27;;;;;;;8.85;5.20;;;;;;;;;;5052897;28;20082;-42
2021/07/06 03:48:53;;;;;;;7.25;5.88;;;;;;;;;;5052989;28;20055;-44
2021/07/06 03:51:19;;;;;;;10.60;5.88;;;;;;;;;;5052977;28;20525;-45
2021/07/06 03:53:45;;;;;;;10.45;5.95;;;;;;;;;;5052969;28;20017;-45
2021/07/06 03:56:11;;;;;;;7.40;5.30;;;;;;;;;;5052848;28;20087;-45
2021/07/06 03:58:37;;;;;;;8.25;5.57;;;;;;;;;;5052965;28;20036;-45
2021/07/06 04:01:06;;;;;;;8.65;5.20;;;;;;;;;;5052846;28;20389;-43
2021/07/06 04:03:32;;;;;;;6.85;5.43;;;;;;;;;;5052910;28;20485;-43
2021/07/06 04:05:58;;;;;;;7.15;5.38;;;;;;;;;;5052908;28;20459;-45
2021/07/06 04:08:24;;;;;;;7.68;4.60;;;;;;;;;;5052800;28;20077;-43
2021/07/06 04:10:50;;;;;;;8.05;4.80;;;;;;;;;;5052694;28;20031;-46
2021/07/06 04:13:16;;;;;;;7.35;5.38;;;;;;;;;;5052841;28;20017;-46
2021/07/06 04:15:42;;;;;;;10.55;5.13;;;;;;;;;;5052422;28;20061;-46
2021/07/06 04:18:08;;;;;;;9.50;5.40;;;;;;;;;;5052577;28;20032;-43
2021/07/06 04:20:34;;;;;;;9.05;4.97;;;;;;;;;;5052857;28;20056;-46
2021/07/06 04:23:00;;;;;;;10.60;5.10;;;;;;;;;;5054801;28;20013;-45
2021/07/06 04:25:27;;;;;;;7.45;4.82;;;;;;;;;;5056521;28;20083;-43
2021/07/06 04:27:53;;;;;;;11.88;4.60;;;;;;;;;;5054918;28;20385;-45
2021/07/06 04:30:19;;;;;;;6.45;4.38;;;;;;;;;;5056349;28;20028;-43
2021/07/06 04:32:46;;;;;;;8.00;4.68;;;;;;;;;;5056194;28;20029;-43
2021/07/06 04:35:13;;;;;;;14.75;6.18;;;;;;;;;;5056161;28;20021;-44
2021/07/06 04:37:39;;;;;;;17.38;8.98;;;;;;;;;;5056256;28;20048;-43
2021/07/06 04:40:06;;;;;;;19.20;9.48;;;;;;;;;;5056142;28;20477;-46
2021/07/06 04:42:32;;;;;;;17.05;9.10;;;;;;;;;;5056007;28;20481;-44
2021/07/06 04:44:58;;;;;;;15.77;8.10;;;;;;;;;;5056257;28;20037;-45
2021/07/06 04:47:25;;;;;;;16.38;7.78;;;;;;;;;;5055773;28;20048;-43
2021/07/06 04:49:51;;;;;;;15.68;7.45;;;;;;;;;;5054459;28;20489;-44
2021/07/06 04:52:17;;;;;;;11.88;6.45;;;;;;;;;;5055874;28;20031;-43
2021/07/06 04:54:43;;;;;;;9.23;5.22;;;;;;;;;;5055432;28;20487;-43
2021/07/06 04:57:09;;;;;;;10.95;5.85;;;;;;;;;;5055747;28;20037;-42
2021/07/06 04:59:35;;;;;;;11.90;6.25;;;;;;;;;;5055912;28;20358;-43
2021/07/06 05:02:01;;;;;;;6.30;4.47;;;;;;;;;;5055858;28;20079;-43
2021/07/06 05:04:30;;;;;;;9.57;5.43;;;;;;;;;;5055545;28;20017;-43
2021/07/06 05:06:57;;;;;;;8.80;4.93;;;;;;;;;;5055742;28;20496;-43
2021/07/06 05:09:23;;;;;;;9.07;5.50;;;;;;;;;;5055731;28;20059;-43
2021/07/06 05:11:49;;;;;;;14.50;9.63;;;;;;;;;;5055407;28;20029;-43
2021/07/06 05:14:15;;;;;;;11.75;6.45;;;;;;;;;;5054072;28;20053;-43
2021/07/06 05:16:41;;;;;;;8.10;4.75;;;;;;;;;;5055409;28;20041;-44
2021/07/06 05:19:07;;;;;;;8.57;5.55;;;;;;;;;;5055574;28;20374;-43
2021/07/06 05:21:33;;;;;;;6.88;5.15;;;;;;;;;;5055127;28;20031;-43
2021/07/06 05:24:00;;;;;;;7.18;4.55;;;;;;;;;;5053859;28;20025;-44
2021/07/06 05:26:26;;;;;;;7.43;5.15;;;;;;;;;;5055007;28;20026;-44
2021/07/06 05:28:53;;;;;;;7.82;4.72;;;;;;;;;;5055038;28;20032;-43
2021/07/06 05:31:19;;;;;;;6.72;4.60;;;;;;;;;;5054972;28;20560;-43
2021/07/06 05:33:47;;;;;;;7.05;5.13;;;;;;;;;;5054842;28;20024;-43
2021/07/06 05:36:13;;;;;;;10.55;4.50;;;;;;;;;;5054951;28;20404;-44
2021/07/06 05:38:39;;;;;;;8.57;4.47;;;;;;;;;;5054853;28;20018;-44
2021/07/06 05:41:07;;;;;;;5.32;4.10;;;;;;;;;;5054708;28;20485;-45
2021/07/06 05:43:34;;;;;;;7.50;4.45;;;;;;;;;;5054908;28;20079;-45
2021/07/06 05:46:00;;;;;;;5.55;3.78;;;;;;;;;;5054753;28;20032;-44
2021/07/06 05:48:26;;;;;;;7.15;4.50;;;;;;;;;;5053120;28;20029;-44
2021/07/06 05:50:52;;;;;;;9.23;4.05;;;;;;;;;;5052994;28;20037;-44
2021/07/06 05:53:18;;;;;;;8.20;4.03;;;;;;;;;;5054838;28;20085;-44
2021/07/06 05:55:44;;;;;;;5.72;4.13;;;;;;;;;;5054250;28;20029;-45
2021/07/06 05:58:11;;;;;;;5.57;3.63;;;;;;;;;;5054464;28;20057;-44
2021/07/06 06:00:38;;;;;;;7.28;3.70;;;;;;;;;;5054329;28;20040;-44
2021/07/06 06:03:08;;;;;;;5.93;4.03;;;;;;;;;;5054359;28;20028;-44
2021/07/06 06:05:34;;;;;;;5.75;4.25;;;;;;;;;;5054502;28;20036;-46
2021/07/06 06:08:01;;;;;;;10.02;3.70;;;;;;;;;;5054386;28;20032;-43
2021/07/06 06:10:27;;;;;;;7.38;4.38;;;;;;;;;;5054387;28;20141;-43
2021/07/06 06:12:53;;;;;;;7.05;4.30;;;;;;;;;;5054197;28;20515;-43
2021/07/06 06:15:19;;;;;;;12.90;4.65;;;;;;;;;;5054054;28;20163;-45
2021/07/06 06:17:45;;;;;;;9.40;4.50;;;;;;;;;;5054149;28;20021;-45
2021/07/06 06:20:12;;;;;;;14.40;5.50;;;;;;;;;;5053990;28;20112;-45
2021/07/06 06:22:38;;;;;;;10.02;3.95;;;;;;;;;;5054078;28;20021;-47
2021/07/06 06:25:04;;;;;;;5.15;3.38;;;;;;;;;;5053783;28;20025;-47
2021/07/06 06:27:30;;;;;;;17.52;5.97;;;;;;;;;;5054235;28;20025;-46
2021/07/06 06:29:56;;;;;;;14.75;5.20;;;;;;;;;;5053970;28;20025;-45
2021/07/06 06:32:25;;;;;;;9.63;4.15;;;;;;;;;;5053841;28;20108;-43
2021/07/06 06:34:51;;;;;;;9.80;4.50;;;;;;;;;;5053622;28;20029;-46
2021/07/06 06:37:18;;;;;;;7.47;4.25;;;;;;;;;;5052095;28;20393;-43
2021/07/06 06:39:44;;;;;;;5.25;3.47;;;;;;;;;;5053746;28;20381;-43
2021/07/06 06:42:10;;;;;;;6.53;3.72;;;;;;;;;;5052641;28;20032;-43
2021/07/06 06:44:37;;;;;;;4.95;3.30;;;;;;;;;;5053393;28;20056;-41
2021/07/06 06:47:04;;;;;;;4.43;3.63;;;;;;;;;;5053545;28;20024;-41
2021/07/06 06:49:30;;;;;;;8.38;3.13;;;;;;;;;;5053656;28;20027;-44
2021/07/06 06:51:56;;;;;;;3.90;3.08;;;;;;;;;;5052293;28;20053;-44
2021/07/06 06:54:22;;;;;;;6.28;3.38;;;;;;;;;;5053422;28;20515;-44
2021/07/06 06:56:48;;;;;;;4.20;3.10;;;;;;;;;;5053528;28;20063;-41
2021/07/06 06:59:16;;;;;;;5.13;3.30;;;;;;;;;;5053626;28;20108;-41
2021/07/06 07:01:44;;;;;;;4.68;3.15;;;;;;;;;;5053515;28;20021;-45
2021/07/06 07:04:10;;;;;;;3.92;2.97;;;;;;;;;;5053323;28;20051;-41
2021/07/06 07:06:36;;;;;;;6.22;3.55;;;;;;;;;;5053505;28;20481;-43
2021/07/06 07:09:09;;;;;;;5.90;3.55;;;;;;;;;;5053466;28;20029;-42
2021/07/06 07:11:36;;;;;;;4.25;3.05;;;;;;;;;;5053350;28;20017;-41
2021/07/06 07:14:02;;;;;;;11.88;4.03;;;;;;;;;;5052924;28;20485;-44
2021/07/06 07:16:28;;;;;;;7.50;3.80;;;;;;;;;;5053282;28;20043;-44
2021/07/06 07:18:54;;;;;;;10.98;3.92;;;;;;;;;;5053157;28;20099;-43
2021/07/06 07:21:20;;;;;;;7.80;3.30;;;;;;;;;;5053451;28;20497;-43
2021/07/06 07:23:46;;;;;;;26.00;5.32;;;;;;;;;;5053288;28;20082;-43
2021/07/06 07:26:13;;;;;;;23.10;4.70;;;;;;;;;;5053129;28;20389;-44
2021/07/06 07:28:39;;;;;;;17.95;5.20;;;;;;;;;;5053262;28;20102;-43
2021/07/06 07:31:05;;;;;;;5.38;3.28;;;;;;;;;;5053063;28;20616;-42
2021/07/06 07:33:31;;;;;;;12.55;4.43;;;;;;;;;;5053045;28;20111;-45
2021/07/06 07:35:57;;;;;;;11.18;3.92;;;;;;;;;;5053276;28;20389;-46
2021/07/06 07:38:24;;;;;;;12.85;4.18;;;;;;;;;;5053029;28;20032;-42
2021/07/06 07:40:50;;;;;;;16.08;4.20;;;;;;;;;;5053219;28;20070;-43
2021/07/06 07:43:16;;;;;;;6.63;3.80;;;;;;;;;;5053148;28;20028;-45
2021/07/06 07:45:42;;;;;;;33.38;6.65;;;;;;;;;;5053060;28;20056;-45
2021/07/06 07:48:08;;;;;;;75.63;10.50;;;;;;;;;;5052801;28;20025;-45
2021/07/06 07:50:34;;;;;;;7.90;3.10;;;;;;;;;;5052904;28;20024;-46
2021/07/06 07:53:01;;;;;;;11.18;4.00;;;;;;;;;;5051882;28;20040;-46
2021/07/06 07:55:27;;;;;;;7.50;2.85;;;;;;;;;;5052788;28;20041;-46
2021/07/06 07:57:53;;;;;;;4.75;2.45;;;;;;;;;;5054760;28;20032;-45
2021/07/06 08:00:19;;;;;;;11.98;3.80;;;;;;;;;;5056631;28;20017;-45
2021/07/06 08:02:45;;;;;;;10.77;3.55;;;;;;;;;;5057164;28;20054;-45
2021/07/06 08:05:11;;;;;;;14.43;3.60;;;;;;;;;;5056603;28;20477;-44
2021/07/06 08:07:37;;;;;;;16.08;3.63;;;;;;;;;;5056744;28;20032;-47
2021/07/06 08:10:04;;;;;;;6.22;3.22;;;;;;;;;;5056544;28;20059;-45
2021/07/06 08:12:30;;;;;;;6.55;3.40;;;;;;;;;;5056799;28;20484;-46
2021/07/06 08:14:56;;;;;;;4.15;2.83;;;;;;;;;;5056206;28;20119;-44
2021/07/06 08:17:23;;;;;;;4.97;2.85;;;;;;;;;;5056592;28;20024;-43
2021/07/06 08:19:50;;;;;;;6.70;3.20;;;;;;;;;;5056590;28;20079;-42
2021/07/06 08:22:16;;;;;;;5.43;2.72;;;;;;;;;;5056401;28;20021;-42
2021/07/06 08:24:43;;;;;;;7.47;3.60;;;;;;;;;;5056246;28;20021;-45
2021/07/06 08:27:09;;;;;;;5.78;3.33;;;;;;;;;;5056215;28;20021;-43
2021/07/06 08:29:35;;;;;;;4.90;3.40;;;;;;;;;;5056079;28;20025;-42
2021/07/06 08:32:01;;;;;;;6.35;3.50;;;;;;;;;;5055991;28;20017;-43
2021/07/06 08:34:28;;;;;;;5.50;3.58;;;;;;;;;;5056195;28;20496;-45
2021/07/06 08:36:54;;;;;;;8.00;3.70;;;;;;;;;;5056093;28;20123;-43
2021/07/06 08:39:20;;;;;;;4.00;3.08;;;;;;;;;;5056117;28;20017;-42
2021/07/06 08:41:46;;;;;;;3.60;3.30;;;;;;;;;;5056148;28;20032;-42
2021/07/06 08:44:12;;;;;;;5.40;4.00;;;;;;;;;;5056136;28;20122;-42
2021/07/06 08:46:38;;;;;;;6.55;4.22;;;;;;;;;;5056299;28;20032;-42
2021/07/06 08:49:05;;;;;;;5.20;4.70;;;;;;;;;;5055967;28;20071;-42
2021/07/06 08:51:31;;;;;;;5.32;4.82;;;;;;;;;;5055835;28;20104;-43
2021/07/06 08:53:58;;;;;;;8.20;4.63;;;;;;;;;;5055858;28;20025;-42
2021/07/06 08:56:24;;;;;;;5.00;4.50;;;;;;;;;;5055866;28;20044;-43
2021/07/06 08:58:52;;;;;;;6.18;4.45;;;;;;;;;;5055765;28;20031;-42
2021/07/06 09:01:25;;;;;;;7.70;5.13;;;;;;;;;;5055767;28;20033;-43
2021/07/06 09:03:52;;;;;;;5.50;4.43;;;;;;;;;;5055584;28;20036;-44
2021/07/06 09:06:18;;;;;;;7.72;3.95;;;;;;;;;;5055549;28;20055;-42
2021/07/06 09:08:50;;;;;;;4.35;3.75;;;;;;;;;;5055356;28;20078;-44
2021/07/06 09:11:17;;;;;;;9.43;4.15;;;;;;;;;;5055535;28;20393;-42
2021/07/06 09:13:43;;;;;;;10.73;4.47;;;;;;;;;;5055713;28;20021;-42
2021/07/06 09:16:19;;;;;;;16.38;4.85;;;;;;;;;;5054979;28;20401;-42
2021/07/06 09:18:47;;;;;;;8.02;4.00;;;;;;;;;;5055367;28;20049;-42
2021/07/06 09:21:13;;;;;;;8.00;4.32;;;;;;;;;;5055318;28;20043;-45
2021/07/06 09:23:44;;;;;;;4.57;3.95;;;;;;;;;;5055273;28;20018;-42
2021/07/06 09:26:10;;;;;;;4.57;3.67;;;;;;;;;;5055018;28;20465;-42
2021/07/06 09:28:37;;;;;;;7.90;4.10;;;;;;;;;;5055125;28;20082;-41
2021/07/06 09:31:22;;;;;;;6.82;3.50;;;;;;;;;;5055029;28;20485;-42
2021/07/06 09:33:56;;;;;;;7.07;3.90;;;;;;;;;;5055100;28;20380;-43
2021/07/06 09:36:28;;;;;;;9.35;3.95;;;;;;;;;;5054985;28;20036;-44
2021/07/06 09:39:00;;;;;;;4.18;3.72;;;;;;;;;;5055038;28;20025;-43
2021/07/06 09:41:26;;;;;;;5.00;3.80;;;;;;;;;;5054773;28;20025;-43
2021/07/06 09:43:52;;;;;;;5.93;4.07;;;;;;;;;;5053447;28;20021;-42
2021/07/06 09:46:18;;;;;;;5.25;3.83;;;;;;;;;;5055016;28;20109;-43
2021/07/06 09:48:47;;;;;;;4.80;3.60;;;;;;;;;;5054964;28;20028;-42
2021/07/06 09:51:15;;;;;;;8.73;4.93;;;;;;;;;;5054670;28;20025;-42
2021/07/06 09:53:42;;;;;;;9.18;4.20;;;;;;;;;;5055029;28;20510;-43
2021/07/06 09:56:09;;;;;;;11.32;4.65;;;;;;;;;;5054553;28;20037;-44
2021/07/06 09:58:49;;;;;;;5.35;4.47;;;;;;;;;;5054411;28;20499;-42
2021/07/06 10:01:15;;;;;;;5.13;4.22;;;;;;;;;;5054480;28;20036;-44
2021/07/06 10:03:41;;;;;;;6.60;4.38;;;;;;;;;;5054632;28;20096;-44
2021/07/06 10:06:07;;;;;;;15.35;5.10;;;;;;;;;;5054600;28;20029;-43
2021/07/06 10:08:34;;;;;;;5.57;4.43;;;;;;;;;;5054464;28;20021;-44
2021/07/06 10:11:00;;;;;;;6.85;4.85;;;;;;;;;;5054212;28;20057;-43
2021/07/06 10:13:27;;;;;;;4.35;3.95;;;;;;;;;;5054288;28;20047;-43
2021/07/06 10:15:53;;;;;;;6.90;4.50;;;;;;;;;;5053840;28;20084;-43
2021/07/06 10:18:20;;;;;;;6.55;4.35;;;;;;;;;;5054413;28;20477;-43
2021/07/06 10:20:46;;;;;;;6.18;4.35;;;;;;;;;;5053428;28;20029;-43
2021/07/06 10:23:12;;;;;;;7.03;4.75;;;;;;;;;;5054114;28;20108;-43
2021/07/06 10:25:39;;;;;;;24.67;7.43;;;;;;;;;;5053940;28;20021;-43
2021/07/06 10:28:15;;;;;;;41.75;8.75;;;;;;;;;;5053896;28;20035;-46
2021/07/06 10:30:42;;;;;;;16.33;5.68;;;;;;;;;;5054436;28;20112;-44
2021/07/06 10:33:29;;;;;;;6.78;4.78;;;;;;;;;;5054088;28;20025;-44
2021/07/06 10:35:55;;;;;;;5.03;4.55;;;;;;;;;;5053844;28;20043;-44
2021/07/06 10:40:58;;;;;;;7.95;4.82;;;;;;;;;;5053709;28;20025;-44
2021/07/06 10:43:30;;;;;;;14.05;5.93;;;;;;;;;;5053867;28;20472;-43
2021/07/06 10:45:57;;;;;;;367.00;39.45;;;;;;;;;;5053859;28;20037;-46
2021/07/06 10:48:52;;;;;;;17.35;5.63;;;;;;;;;;5053597;28;20555;-43
2021/07/06 10:51:37;;;;;;;112.00;16.60;;;;;;;;;;5048742;28;20064;-43
2021/07/06 10:54:07;;;;;;;23.80;6.50;;;;;;;;;;5053868;28;20074;-45
2021/07/06 10:56:34;;;;;;;11.43;4.82;;;;;;;;;;5053477;28;20069;-43
2021/07/06 10:59:03;;;;;;;8.05;4.80;;;;;;;;;;5053624;28;20060;-43
2021/07/06 11:01:40;;;;;;;6.47;4.88;;;;;;;;;;5053361;28;20485;-44
2021/07/06 11:04:07;;;;;;;6.13;4.65;;;;;;;;;;5053585;28;20025;-44
2021/07/06 11:06:48;;;;;;;5.85;5.00;;;;;;;;;;5053399;28;20021;-44
2021/07/06 11:09:23;;;;;;;6.63;4.68;;;;;;;;;;5053348;28;20393;-43
2021/07/06 11:11:49;;;;;;;6.15;4.82;;;;;;;;;;5053234;28;20036;-43
2021/07/06 11:14:18;;;;;;;6.47;4.63;;;;;;;;;;5053336;28;20041;-44
2021/07/06 11:16:55;;;;;;;4.90;4.50;;;;;;;;;;5053028;28;20431;-45
2021/07/06 11:19:33;;;;;;;5.55;4.47;;;;;;;;;;5053354;28;20099;-45
2021/07/06 11:22:08;;;;;;;5.93;4.93;;;;;;;;;;5053282;28;20052;-43
2021/07/06 11:24:43;;;;;;;8.48;5.20;;;;;;;;;;5053199;28;20518;-43
2021/07/06 11:27:10;;;;;;;6.53;4.93;;;;;;;;;;5053097;28;20033;-47
2021/07/06 11:29:39;;;;;;;8.23;4.90;;;;;;;;;;5053657;28;20028;-44
2021/07/06 11:32:11;;;;;;;5.75;4.85;;;;;;;;;;5055711;28;20057;-44
2021/07/06 11:34:38;;;;;;;8.45;5.25;;;;;;;;;;5057326;28;20025;-43
2021/07/06 11:37:22;;;;;;;5.38;4.80;;;;;;;;;;5057028;28;20037;-45
2021/07/06 11:39:50;;;;;;;9.55;5.57;;;;;;;;;;5057363;28;20017;-43
2021/07/06 11:42:16;;;;;;;6.22;4.70;;;;;;;;;;5057010;28;20052;-45
2021/07/06 11:44:47;;;;;;;7.10;4.78;;;;;;;;;;5057275;28;20457;-43
2021/07/06 11:47:16;;;;;;;8.32;4.65;;;;;;;;;;5057084;28;20017;-45
2021/07/06 11:49:43;;;;;;;4.93;4.32;;;;;;;;;;5057269;28;20021;-44
2021/07/06 11:52:09;;;;;;;6.20;4.72;;;;;;;;;;5057087;28;20082;-43
2021/07/06 11:54:35;;;;;;;5.47;4.72;;;;;;;;;;5057049;28;20108;-44
2021/07/06 11:57:02;;;;;;;4.80;4.40;;;;;;;;;;5056754;28;20422;-46
2021/07/06 11:59:28;;;;;;;6.47;4.30;;;;;;;;;;5057011;28;20029;-46
2021/07/06 12:02:15;;;;;;;9.75;5.65;;;;;;;;;;5056752;28;20024;-45
2021/07/06 12:04:41;;;;;;;7.80;4.85;;;;;;;;;;5056903;28;20427;-46
2021/07/06 12:07:11;;;;;;;7.20;4.70;;;;;;;;;;5056582;28;20021;-44
2021/07/06 12:09:38;;;;;;;8.20;5.22;;;;;;;;;;5056803;28;20029;-47
2021/07/06 12:12:11;;;;;;;7.72;4.97;;;;;;;;;;5056559;28;20028;-46
2021/07/06 12:14:44;;;;;;;8.20;5.38;;;;;;;;;;5056329;28;20127;-44
2021/07/06 12:17:10;;;;;;;10.10;5.18;;;;;;;;;;5056281;28;20063;-42
2021/07/06 12:19:37;;;;;;;7.22;4.90;;;;;;;;;;5055103;28;20033;-42
2021/07/06 12:22:03;;;;;;;5.95;4.30;;;;;;;;;;5056465;28;20116;-44
2021/07/06 12:24:33;;;;;;;5.90;5.30;;;;;;;;;;5056286;28;20025;-43
2021/07/06 12:26:59;;;;;;;6.55;4.97;;;;;;;;;;5056194;28;20025;-43
2021/07/06 12:29:29;;;;;;;6.43;5.40;;;;;;;;;;5056312;28;20021;-42
2021/07/06 12:31:55;;;;;;;6.00;5.15;;;;;;;;;;5056572;28;20064;-42
2021/07/06 12:34:33;;;;;;;9.98;5.53;;;;;;;;;;5056323;28;20037;-42
2021/07/06 12:36:59;;;;;;;5.40;4.75;;;;;;;;;;5056159;28;20033;-44
2021/07/06 12:39:26;;;;;;;5.85;5.18;;;;;;;;;;5056145;28;20048;-42
2021/07/06 12:41:54;;;;;;;6.53;5.20;;;;;;;;;;5056200;28;20025;-42
2021/07/06 12:44:31;;;;;;;6.38;4.93;;;;;;;;;;5055658;28;20037;-42
2021/07/06 12:47:13;;;;;;;5.38;4.88;;;;;;;;;;5056413;28;20021;-42
2021/07/06 12:49:39;;;;;;;7.30;4.93;;;;;;;;;;5056304;28;20562;-42
2021/07/06 12:52:07;;;;;;;7.35;5.13;;;;;;;;;;5055913;28;20100;-43
2021/07/06 12:54:34;;;;;;;10.13;6.00;;;;;;;;;;5056361;28;20082;-42
2021/07/06 12:57:01;;;;;;;6.03;5.13;;;;;;;;;;5055644;28;20039;-42
2021/07/06 12:59:29;;;;;;;13.32;9.88;;;;;;;;;;5055731;28;20027;-43
2021/07/06 13:01:56;;;;;;;8.52;5.32;;;;;;;;;;5055842;28;20028;-43
2021/07/06 13:04:23;;;;;;;6.95;6.25;;;;;;;;;;5055878;28;20025;-43
2021/07/06 13:06:50;;;;;;;5.43;4.93;;;;;;;;;;5055554;28;20036;-42
2021/07/06 13:09:28;;;;;;;5.97;5.38;;;;;;;;;;5055632;28;20025;-43
2021/07/06 13:11:54;;;;;;;6.88;5.00;;;;;;;;;;5055512;28;20024;-43
2021/07/06 13:14:22;;;;;;;9.68;5.47;;;;;;;;;;5055416;28;20065;-42
2021/07/06 13:16:49;;;;;;;6.65;5.95;;;;;;;;;;5055412;28;20037;-43
2021/07/06 13:19:33;;;;;;;6.05;5.45;;;;;;;;;;5055617;28;20017;-43
2021/07/06 13:22:16;;;;;;;6.03;4.93;;;;;;;;;;5055246;28;20025;-42
2021/07/06 13:24:42;;;;;;;7.10;5.40;;;;;;;;;;5055446;28;20499;-42
2021/07/06 13:27:08;;;;;;;5.38;4.88;;;;;;;;;;5055314;28;20052;-46
2021/07/06 13:29:35;;;;;;;7.57;5.65;;;;;;;;;;5055256;28;20021;-45
2021/07/06 13:32:01;;;;;;;7.65;5.40;;;;;;;;;;5055105;28;20028;-45
2021/07/06 13:34:27;;;;;;;7.25;5.40;;;;;;;;;;5055021;28;20487;-45
2021/07/06 13:36:53;;;;;;;6.10;5.22;;;;;;;;;;5055077;28;20029;-45
2021/07/06 13:39:19;;;;;;;6.38;5.78;;;;;;;;;;5054968;28;20017;-45
2021/07/06 13:41:45;;;;;;;6.03;5.43;;;;;;;;;;5054982;28;20021;-45
2021/07/06 13:44:11;;;;;;;8.07;5.65;;;;;;;;;;5054683;28;20033;-45
2021/07/06 13:46:37;;;;;;;6.35;5.32;;;;;;;;;;5055270;28;20021;-45
2021/07/06 13:49:03;;;;;;;8.18;5.57;;;;;;;;;;5054709;28;20484;-42
2021/07/06 13:51:29;;;;;;;9.80;6.43;;;;;;;;;;5054542;28;20029;-43
2021/07/06 13:53:58;;;;;;;5.90;5.32;;;;;;;;;;5054722;28;20112;-42
2021/07/06 13:56:27;;;;;;;5.95;4.90;;;;;;;;;;5053577;28;20060;-42
2021/07/06 13:58:53;;;;;;;6.97;5.50;;;;;;;;;;5054602;28;20021;-43
2021/07/06 14:01:19;;;;;;;6.88;5.13;;;;;;;;;;5054684;28;20496;-42
2021/07/06 14:03:48;;;;;;;6.45;5.82;;;;;;;;;;5045267;28;20033;-42
2021/07/06 14:06:16;;;;;;;32.83;26.98;;;;;;;;;;5023742;28;20029;-43
2021/07/06 14:08:44;;;;;;;24.23;19.30;;;;;;;;;;5021975;28;20029;-42
2021/07/06 14:11:10;;;;;;;88.63;37.45;;;;;;;;;;5021769;28;20117;-43
2021/07/06 14:13:36;;;;;;;24.25;16.88;;;;;;;;;;5023045;28;20080;-42
2021/07/06 14:16:02;;;;;;;24.45;19.13;;;;;;;;;;5021361;28;20567;-43
2021/07/06 14:18:29;;;;;;;52.40;45.92;;;;;;;;;;5021733;28;20028;-40
2021/07/06 14:20:55;;;;;;;86.90;71.38;;;;;;;;;;5021346;28;20126;-44
2021/07/06 14:23:21;;;;;;;58.78;49.22;;;;;;;;;;5021568;28;20021;-42
2021/07/06 14:25:47;;;;;;;21.45;18.40;;;;;;;;;;5021712;28;20025;-43
2021/07/06 14:28:13;;;;;;;105.00;83.57;;;;;;;;;;5021383;28;20033;-43
2021/07/06 14:30:40;;;;;;;24.23;21.60;;;;;;;;;;5021686;28;20025;-43
2021/07/06 14:33:06;;;;;;;18.80;15.30;;;;;;;;;;5021536;28;20033;-43
2021/07/06 14:35:32;;;;;;;9.23;8.30;;;;;;;;;;5021216;28;20068;-43
2021/07/06 14:37:58;;;;;;;47.13;35.28;;;;;;;;;;5021892;28;20494;-42
2021/07/06 14:40:24;;;;;;;81.78;58.67;;;;;;;;;;5021219;28;20508;-40
2021/07/06 14:42:51;;;;;;;48.92;34.63;;;;;;;;;;5021169;28;20409;-43